Time;durP1;ratioP1;P1;durP2;ratioP2;P2;SDS_P1;SDS_P2;PMS_P1;PMS_P2;Temp;Humidity;BMP_temperature;BMP_pressure;BME280_temperature;BME280_humidity;BME280_pressure;Samples;Min_cycle;Max_cycle;Signal;HPM_P1;HPM_P2
2021/03/31 00:02:05;;;;;;;8.25;5.78;;;8.10;99.90;;;;;;5065605;28;20107;-72
2021/03/31 00:04:31;;;;;;;10.30;6.35;;;8.00;99.90;;;;;;5064378;28;20023;-73
2021/03/31 00:06:57;;;;;;;10.80;6.35;;;8.00;99.90;;;;;;5064681;28;20036;-73
2021/03/31 00:09:23;;;;;;;13.07;6.57;;;8.00;99.90;;;;;;5064150;28;20025;-72
2021/03/31 00:11:49;;;;;;;7.47;5.70;;;8.00;99.90;;;;;;5063265;28;20035;-73
2021/03/31 00:14:18;;;;;;;7.60;5.80;;;7.80;99.90;;;;;;5066171;28;20029;-73
2021/03/31 00:16:44;;;;;;;10.88;6.72;;;7.80;99.90;;;;;;5063390;28;20106;-73
2021/03/31 00:19:10;;;;;;;11.13;6.00;;;7.80;99.90;;;;;;5070566;28;20645;-74
2021/03/31 00:21:36;;;;;;;10.15;6.10;;;7.70;99.90;;;;;;5072102;28;20081;-74
2021/03/31 00:24:02;;;;;;;12.50;6.28;;;7.70;99.90;;;;;;5064023;28;20677;-74
2021/03/31 00:26:27;;;;;;;10.40;6.80;;;7.70;99.90;;;;;;5066059;28;20025;-73
2021/03/31 00:28:53;;;;;;;7.90;5.45;;;7.70;99.90;;;;;;5072672;28;20388;-73
2021/03/31 00:31:19;;;;;;;10.80;6.60;;;7.60;99.90;;;;;;5070356;28;20116;-74
2021/03/31 00:33:45;;;;;;;10.63;6.13;;;7.40;99.90;;;;;;5071283;28;20025;-73
2021/03/31 00:36:10;;;;;;;12.00;6.35;;;7.40;99.90;;;;;;5069644;28;20028;-73
2021/03/31 00:38:36;;;;;;;15.07;6.45;;;7.40;99.90;;;;;;5063710;28;20033;-74
2021/03/31 00:41:04;;;;;;;12.13;6.82;;;7.40;99.90;;;;;;5053590;28;20040;-74
2021/03/31 00:43:30;;;;;;;10.55;6.30;;;7.40;99.90;;;;;;5052376;28;20017;-73
2021/03/31 00:45:56;;;;;;;12.15;6.45;;;7.30;99.90;;;;;;5052219;28;20094;-74
2021/03/31 00:48:22;;;;;;;11.38;7.20;;;7.30;99.90;;;;;;5052304;28;20021;-72
2021/03/31 00:50:50;;;;;;;14.57;6.70;;;7.30;99.90;;;;;;5052685;28;20029;-73
2021/03/31 00:53:26;;;;;;;16.48;7.43;;;7.30;99.90;;;;;;5051977;28;20124;-72
2021/03/31 00:55:52;;;;;;;12.55;7.03;;;7.20;99.90;;;;;;5052451;28;20021;-72
2021/03/31 00:58:18;;;;;;;10.52;6.55;;;7.10;99.90;;;;;;5052251;28;20021;-72
2021/03/31 01:00:44;;;;;;;15.80;6.70;;;7.20;99.90;;;;;;5052007;28;20021;-72
2021/03/31 01:03:10;;;;;;;13.25;7.60;;;7.00;99.90;;;;;;5051518;28;20565;-72
2021/03/31 01:05:36;;;;;;;16.83;7.60;;;7.10;99.90;;;;;;5052221;28;20045;-73
2021/03/31 01:08:02;;;;;;;11.20;7.72;;;7.10;99.90;;;;;;5052116;28;20083;-72
2021/03/31 01:10:44;;;;;;;11.82;7.03;;;7.00;99.90;;;;;;5051996;28;20491;-72
2021/03/31 01:13:28;;;;;;;11.73;6.75;;;7.00;99.90;;;;;;5051500;28;20025;-73
2021/03/31 01:16:00;;;;;;;13.55;7.40;;;6.90;99.90;;;;;;5051656;28;20384;-73
2021/03/31 01:18:47;;;;;;;10.75;7.00;;;6.90;99.90;;;;;;5050509;28;20144;-71
2021/03/31 01:21:32;;;;;;;11.98;7.40;;;6.80;99.90;;;;;;5051860;28;20060;-72
2021/03/31 01:24:28;;;;;;;9.10;6.93;;;6.80;99.90;;;;;;5051029;28;20029;-73
2021/03/31 01:27:12;;;;;;;16.35;7.10;;;6.70;99.90;;;;;;5051659;28;20055;-72
2021/03/31 01:29:51;;;;;;;9.48;6.97;;;6.70;99.90;;;;;;5051695;28;20037;-72
2021/03/31 01:32:25;;;;;;;10.25;7.05;;;6.60;99.90;;;;;;5049604;28;20479;-73
2021/03/31 01:34:54;;;;;;;10.88;6.60;;;6.60;99.90;;;;;;5051173;28;20029;-72
2021/03/31 01:37:31;;;;;;;11.63;6.97;;;6.50;99.90;;;;;;5050296;28;20501;-72
2021/03/31 01:39:59;;;;;;;11.38;7.70;;;6.60;99.90;;;;;;5051940;28;20029;-74
2021/03/31 01:42:29;;;;;;;9.02;7.10;;;6.50;99.90;;;;;;5051691;28;20096;-74
2021/03/31 01:45:01;;;;;;;15.30;7.47;;;6.50;99.90;;;;;;5050245;28;20091;-74
2021/03/31 01:47:29;;;;;;;13.82;7.65;;;6.40;99.90;;;;;;5050258;28;20021;-72
2021/03/31 01:49:56;;;;;;;9.82;7.50;;;6.40;99.90;;;;;;5051673;28;20037;-73
2021/03/31 01:52:22;;;;;;;14.13;6.95;;;6.40;99.90;;;;;;5051246;28;20032;-74
2021/03/31 01:54:49;;;;;;;12.48;7.65;;;6.30;99.90;;;;;;5050619;28;20036;-74
2021/03/31 01:57:15;;;;;;;12.68;7.75;;;6.30;99.90;;;;;;5051362;28;20078;-72
2021/03/31 01:59:47;;;;;;;13.40;7.68;;;6.30;99.90;;;;;;5051420;28;20033;-73
2021/03/31 02:02:13;;;;;;;14.18;8.15;;;6.30;99.90;;;;;;5051500;28;20067;-74
2021/03/31 02:04:41;;;;;;;12.15;7.13;;;6.30;99.90;;;;;;5050488;28;20672;-72
2021/03/31 02:07:07;;;;;;;14.55;7.82;;;6.20;99.90;;;;;;5051391;28;20372;-73
2021/03/31 02:09:38;;;;;;;17.23;7.57;;;6.30;99.90;;;;;;5049747;28;20032;-73
2021/03/31 02:12:05;;;;;;;13.90;7.40;;;6.20;99.90;;;;;;5051317;28;20036;-74
2021/03/31 02:14:33;;;;;;;20.40;7.60;;;6.20;99.90;;;;;;5050545;28;20025;-73
2021/03/31 02:17:00;;;;;;;17.17;7.75;;;6.20;99.90;;;;;;5050943;28;20078;-73
2021/03/31 02:19:26;;;;;;;12.23;7.32;;;6.10;99.90;;;;;;5051259;28;20032;-74
2021/03/31 02:21:52;;;;;;;11.73;7.63;;;6.10;99.90;;;;;;5051237;28;20018;-73
2021/03/31 02:24:20;;;;;;;10.27;6.88;;;6.00;99.90;;;;;;5050501;28;20070;-72
2021/03/31 02:26:45;;;;;;;16.67;7.68;;;5.90;99.90;;;;;;5051061;28;20024;-74
2021/03/31 02:29:11;;;;;;;14.13;8.18;;;5.90;99.90;;;;;;5050939;28;20033;-74
2021/03/31 02:31:38;;;;;;;12.73;7.70;;;5.90;99.90;;;;;;5050954;28;20060;-74
2021/03/31 02:34:05;;;;;;;12.68;7.80;;;5.90;99.90;;;;;;5050405;28;20025;-74
2021/03/31 02:36:33;;;;;;;13.68;7.78;;;5.90;99.90;;;;;;5050783;28;20094;-74
2021/03/31 02:39:00;;;;;;;16.08;8.02;;;5.80;99.90;;;;;;5050860;28;20743;-73
2021/03/31 02:41:27;;;;;;;13.98;8.38;;;5.80;99.90;;;;;;5050927;28;20630;-74
2021/03/31 02:43:55;;;;;;;15.65;9.07;;;5.80;99.90;;;;;;5050267;28;20028;-74
2021/03/31 02:46:22;;;;;;;17.52;7.80;;;5.70;99.90;;;;;;5050556;28;20025;-71
2021/03/31 02:48:50;;;;;;;13.52;7.53;;;5.70;99.90;;;;;;5051054;28;20037;-72
2021/03/31 02:51:19;;;;;;;12.68;7.47;;;5.60;99.90;;;;;;5050602;28;20075;-72
2021/03/31 02:53:46;;;;;;;11.77;7.53;;;5.50;99.90;;;;;;5048597;28;20033;-72
2021/03/31 02:56:13;;;;;;;14.75;7.38;;;5.50;99.90;;;;;;5053687;28;20029;-72
2021/03/31 02:58:42;;;;;;;11.55;7.40;;;5.40;99.90;;;;;;5054443;28;20530;-72
2021/03/31 03:01:08;;;;;;;18.85;8.35;;;5.50;99.90;;;;;;5054223;28;20040;-73
2021/03/31 03:03:38;;;;;;;15.07;7.55;;;5.50;99.90;;;;;;5053714;28;20120;-71
2021/03/31 03:06:04;;;;;;;10.27;7.28;;;5.60;99.90;;;;;;5054100;28;20032;-74
2021/03/31 03:08:31;;;;;;;15.30;8.45;;;5.50;99.90;;;;;;5054375;28;20028;-72
2021/03/31 03:10:59;;;;;;;14.90;7.65;;;5.50;99.90;;;;;;5054292;28;20078;-72
2021/03/31 03:13:27;;;;;;;16.50;8.68;;;5.50;99.90;;;;;;5053579;28;20302;-72
2021/03/31 03:15:53;;;;;;;14.82;8.57;;;5.40;99.90;;;;;;5053873;28;20020;-72
2021/03/31 03:18:19;;;;;;;13.02;7.88;;;5.40;99.90;;;;;;5054224;28;20036;-72
2021/03/31 03:20:44;;;;;;;10.90;7.72;;;5.40;99.90;;;;;;5052937;28;20029;-72
2021/03/31 03:23:10;;;;;;;12.80;8.13;;;5.30;99.90;;;;;;5053543;28;20025;-72
2021/03/31 03:25:36;;;;;;;18.02;9.05;;;5.30;99.90;;;;;;5054136;28;20114;-72
2021/03/31 03:28:04;;;;;;;12.45;7.50;;;5.20;99.90;;;;;;5054042;28;20039;-72
2021/03/31 03:30:31;;;;;;;13.65;8.15;;;5.20;99.90;;;;;;5053669;28;20091;-72
2021/03/31 03:32:59;;;;;;;12.90;7.72;;;5.20;99.90;;;;;;5053108;28;20029;-71
2021/03/31 03:35:28;;;;;;;14.68;8.32;;;5.20;99.90;;;;;;5053608;28;20028;-73
2021/03/31 03:37:55;;;;;;;11.85;7.43;;;5.10;99.90;;;;;;5053910;28;20428;-72
2021/03/31 03:40:25;;;;;;;12.55;8.20;;;5.10;99.90;;;;;;5052521;28;20029;-72
2021/03/31 03:42:52;;;;;;;14.88;8.10;;;5.10;99.90;;;;;;5053194;28;20033;-73
2021/03/31 03:45:21;;;;;;;15.13;8.15;;;5.10;99.90;;;;;;5053243;28;20089;-72
2021/03/31 03:47:47;;;;;;;16.60;8.35;;;5.10;99.90;;;;;;5053446;28;20021;-73
2021/03/31 03:50:14;;;;;;;10.98;8.00;;;5.10;99.90;;;;;;5053961;28;20375;-73
2021/03/31 03:52:42;;;;;;;12.70;8.60;;;5.10;99.90;;;;;;5052886;28;20028;-73
2021/03/31 03:55:09;;;;;;;14.40;8.30;;;5.10;99.90;;;;;;5053412;28;20040;-71
2021/03/31 03:57:34;;;;;;;11.65;8.25;;;5.00;99.90;;;;;;5053362;28;20021;-72
2021/03/31 04:00:00;;;;;;;12.57;8.27;;;5.00;99.90;;;;;;5053499;28;20067;-72
2021/03/31 04:02:26;;;;;;;12.82;7.95;;;5.00;99.90;;;;;;5053424;28;20082;-72
2021/03/31 04:04:51;;;;;;;14.82;8.85;;;5.00;99.90;;;;;;5053422;28;20025;-72
2021/03/31 04:07:17;;;;;;;15.65;8.75;;;4.90;99.90;;;;;;5053236;28;20557;-73
2021/03/31 04:09:47;;;;;;;16.52;8.77;;;4.90;99.90;;;;;;5054356;28;20434;-72
2021/03/31 04:12:15;;;;;;;16.40;8.82;;;4.80;99.90;;;;;;5053017;28;20096;-72
2021/03/31 04:14:42;;;;;;;13.13;8.57;;;4.80;99.90;;;;;;5052263;28;20426;-72
2021/03/31 04:17:11;;;;;;;13.10;8.27;;;4.70;99.90;;;;;;5052728;28;20539;-72
2021/03/31 04:19:38;;;;;;;17.05;8.95;;;4.70;99.90;;;;;;5052964;28;20083;-72
2021/03/31 04:22:08;;;;;;;14.23;8.25;;;4.70;99.90;;;;;;5052965;28;20029;-72
2021/03/31 04:24:34;;;;;;;21.27;8.85;;;4.60;99.90;;;;;;5052701;28;20032;-72
2021/03/31 04:27:01;;;;;;;18.10;9.25;;;4.60;99.90;;;;;;5053068;28;20395;-72
2021/03/31 04:29:28;;;;;;;16.20;8.07;;;4.60;99.90;;;;;;5052814;28;20119;-72
2021/03/31 04:31:54;;;;;;;12.63;7.85;;;4.50;99.90;;;;;;5040919;28;20027;-72
2021/03/31 04:34:21;;;;;;;12.70;7.90;;;4.40;99.90;;;;;;5044618;28;20025;-72
2021/03/31 04:36:47;;;;;;;15.13;8.38;;;4.40;99.90;;;;;;5039129;28;20094;-72
2021/03/31 04:39:14;;;;;;;12.98;7.72;;;4.40;99.90;;;;;;5064081;28;20463;-72
2021/03/31 04:41:40;;;;;;;11.68;7.45;;;4.50;99.90;;;;;;5063024;28;20052;-72
2021/03/31 04:44:06;;;;;;;11.20;7.82;;;4.40;99.90;;;;;;5067070;28;20060;-72
2021/03/31 04:46:32;;;;;;;13.05;7.88;;;4.40;99.90;;;;;;5070239;28;20336;-72
2021/03/31 04:48:57;;;;;;;14.45;8.50;;;4.40;99.90;;;;;;5069918;28;20073;-72
2021/03/31 04:51:23;;;;;;;12.98;8.75;;;4.40;99.90;;;;;;5051167;28;20031;-72
2021/03/31 04:53:48;;;;;;;17.05;8.38;;;4.40;99.90;;;;;;5049807;28;20132;-72
2021/03/31 04:56:14;;;;;;;13.35;8.15;;;4.30;99.90;;;;;;5050436;28;20025;-72
2021/03/31 04:58:40;;;;;;;17.80;7.72;;;4.30;99.90;;;;;;5050689;28;20029;-74
2021/03/31 05:01:06;;;;;;;16.60;9.45;;;4.30;99.90;;;;;;5049801;28;20551;-73
2021/03/31 05:03:32;;;;;;;14.65;8.95;;;4.30;99.90;;;;;;5049146;28;20096;-72
2021/03/31 05:05:58;;;;;;;16.80;7.88;;;4.30;99.90;;;;;;5049995;28;20021;-73
2021/03/31 05:08:23;;;;;;;19.42;9.02;;;4.40;99.90;;;;;;5051035;28;20076;-72
2021/03/31 05:10:49;;;;;;;15.75;8.70;;;4.40;99.90;;;;;;5051177;28;20032;-71
2021/03/31 05:13:15;;;;;;;17.17;8.93;;;4.50;99.90;;;;;;5047806;28;20489;-73
2021/03/31 05:15:41;;;;;;;16.73;8.48;;;4.50;99.90;;;;;;5048127;28;20147;-71
2021/03/31 05:18:07;;;;;;;15.88;8.27;;;4.50;99.90;;;;;;5050041;28;20060;-71
2021/03/31 05:20:33;;;;;;;15.38;7.82;;;4.60;99.90;;;;;;5050169;28;20025;-73
2021/03/31 05:22:59;;;;;;;11.23;7.18;;;4.70;99.90;;;;;;5049225;28;20075;-73
2021/03/31 05:25:25;;;;;;;12.15;7.80;;;4.70;99.90;;;;;;5050136;28;20495;-73
2021/03/31 05:27:50;;;;;;;23.45;9.48;;;4.60;99.90;;;;;;5069947;28;20033;-73
2021/03/31 05:30:17;;;;;;;16.50;8.43;;;4.70;99.90;;;;;;5058237;28;20080;-72
2021/03/31 05:32:43;;;;;;;20.58;9.25;;;4.70;99.90;;;;;;5032823;28;20109;-72
2021/03/31 05:35:09;;;;;;;15.35;8.43;;;4.80;99.90;;;;;;5028666;28;20645;-70
2021/03/31 05:37:35;;;;;;;10.40;7.28;;;4.80;99.90;;;;;;5030070;28;20036;-71
2021/03/31 05:40:01;;;;;;;14.65;8.27;;;4.80;99.90;;;;;;5028653;28;20042;-71
2021/03/31 05:42:27;;;;;;;14.82;8.35;;;4.80;99.90;;;;;;5030011;28;20079;-71
2021/03/31 05:44:53;;;;;;;15.77;7.68;;;4.90;99.90;;;;;;5027703;28;20030;-74
2021/03/31 05:47:35;;;;;;;13.82;7.80;;;4.90;99.90;;;;;;5029785;28;20025;-71
2021/03/31 05:50:09;;;;;;;14.93;8.60;;;5.00;99.90;;;;;;5030371;28;20684;-73
2021/03/31 05:52:35;;;;;;;18.33;9.40;;;5.00;99.90;;;;;;5029602;28;20076;-72
2021/03/31 05:55:02;;;;;;;16.30;8.93;;;5.10;99.90;;;;;;5029335;28;20112;-70
2021/03/31 05:57:32;;;;;;;16.27;8.68;;;5.20;99.90;;;;;;5029597;28;20037;-71
2021/03/31 05:59:58;;;;;;;13.68;8.77;;;5.20;99.90;;;;;;5034926;28;20224;-72
2021/03/31 06:02:24;;;;;;;18.45;8.90;;;5.40;99.90;;;;;;5044853;28;20556;-73
2021/03/31 06:04:53;;;;;;;14.35;8.32;;;5.40;99.90;;;;;;5041663;28;20029;-72
2021/03/31 06:07:19;;;;;;;15.63;8.77;;;5.40;99.90;;;;;;5040790;28;20053;-73
2021/03/31 06:10:06;;;;;;;14.85;8.32;;;5.50;99.90;;;;;;5039207;28;20052;-73
2021/03/31 06:12:34;;;;;;;15.50;8.45;;;5.60;99.90;;;;;;5038268;28;20114;-72
2021/03/31 06:15:37;;;;;;;19.33;8.43;;;5.60;99.90;;;;;;5037452;28;20180;-73
2021/03/31 06:18:13;;;;;;;12.60;8.32;;;5.70;99.90;;;;;;5012505;28;20040;-73
2021/03/31 06:20:43;;;;;;;13.40;8.63;;;5.70;99.90;;;;;;5039275;28;20026;-74
2021/03/31 06:23:15;;;;;;;11.52;7.47;;;5.70;99.90;;;;;;5049775;28;20028;-72
2021/03/31 06:26:02;;;;;;;18.58;7.72;;;5.70;99.90;;;;;;5049112;28;20091;-72
2021/03/31 06:28:29;;;;;;;12.50;8.15;;;5.80;99.90;;;;;;5048949;28;20025;-72
2021/03/31 06:31:15;;;;;;;22.13;7.53;;;5.80;99.90;;;;;;5051640;28;20033;-72
2021/03/31 06:33:43;;;;;;;14.93;7.50;;;5.70;99.90;;;;;;5052974;28;20576;-72
2021/03/31 06:36:12;;;;;;;22.45;8.15;;;5.80;99.90;;;;;;5072768;28;20048;-71
2021/03/31 06:38:51;;;;;;;14.75;7.80;;;5.80;99.90;;;;;;5073291;28;20059;-71
2021/03/31 06:41:29;;;;;;;10.82;6.78;;;5.80;99.90;;;;;;5073619;28;20386;-72
2021/03/31 06:44:20;;;;;;;9.75;7.28;;;5.90;99.90;;;;;;5072291;28;20017;-72
2021/03/31 06:46:53;;;;;;;15.65;7.88;;;6.10;99.90;;;;;;5070977;28;20060;-72
2021/03/31 06:49:18;;;;;;;14.88;7.63;;;6.30;99.90;;;;;;5073214;28;20027;-73
2021/03/31 06:51:44;;;;;;;15.32;7.72;;;6.40;99.90;;;;;;5073507;28;20080;-73
2021/03/31 06:54:13;;;;;;;14.32;7.32;;;6.40;99.90;;;;;;5065520;28;20036;-72
2021/03/31 06:56:40;;;;;;;16.13;6.97;;;6.50;99.90;;;;;;5052364;28;20088;-72
2021/03/31 06:59:05;;;;;;;15.38;7.63;;;6.50;99.90;;;;;;5053285;28;20596;-72
2021/03/31 07:01:32;;;;;;;13.90;6.85;;;6.70;99.90;;;;;;5053251;28;20033;-71
2021/03/31 07:04:05;;;;;;;16.90;7.43;;;6.80;99.90;;;;;;5051823;28;20036;-72
2021/03/31 07:06:32;;;;;;;9.60;7.45;;;6.90;99.90;;;;;;5051217;28;20091;-72
2021/03/31 07:08:58;;;;;;;16.17;7.88;;;7.10;99.90;;;;;;5051944;28;20036;-73
2021/03/31 07:11:36;;;;;;;14.88;7.25;;;7.10;99.90;;;;;;5058926;28;20047;-72
2021/03/31 07:14:03;;;;;;;11.10;6.90;;;7.20;99.90;;;;;;5048795;28;20060;-72
2021/03/31 07:16:31;;;;;;;13.10;7.50;;;7.30;99.90;;;;;;5052025;28;20417;-73
2021/03/31 07:18:57;;;;;;;15.48;7.80;;;7.50;99.90;;;;;;5049557;28;20048;-71
2021/03/31 07:21:24;;;;;;;15.40;8.00;;;7.80;99.90;;;;;;5052302;28;20410;-72
2021/03/31 07:23:51;;;;;;;14.45;7.63;;;7.90;99.90;;;;;;5044553;28;20036;-72
2021/03/31 07:26:20;;;;;;;13.65;7.43;;;8.00;99.90;;;;;;5040643;28;20460;-72
2021/03/31 07:28:50;;;;;;;14.07;7.78;;;8.10;99.90;;;;;;5042733;28;20778;-72
2021/03/31 07:31:25;;;;;;;17.27;7.50;;;8.30;99.90;;;;;;5052909;28;20029;-72
2021/03/31 07:34:18;;;;;;;15.07;7.78;;;8.50;99.90;;;;;;5060358;28;20029;-72
2021/03/31 07:36:48;;;;;;;15.18;7.78;;;8.60;99.90;;;;;;5051825;28;20025;-73
2021/03/31 07:39:16;;;;;;;12.95;7.43;;;8.80;99.90;;;;;;5054863;28;20429;-72
2021/03/31 07:41:43;;;;;;;14.32;8.43;;;9.00;99.90;;;;;;5051142;28;20031;-74
2021/03/31 07:44:16;;;;;;;13.23;7.80;;;9.10;99.90;;;;;;5071452;28;20063;-73
2021/03/31 07:46:42;;;;;;;;;;;9.20;99.90;;;;;;5072311;28;20037;-73
2021/03/31 07:49:09;;;;;;;12.63;7.65;;;9.30;99.90;;;;;;5071999;28;19973;-73
2021/03/31 07:51:35;;;;;;;14.38;8.00;;;9.40;99.90;;;;;;5070403;28;20127;-73
2021/03/31 07:54:03;;;;;;;12.15;7.13;;;9.60;99.90;;;;;;5069777;28;20553;-73
2021/03/31 07:56:34;;;;;;;13.88;7.75;;;9.60;99.90;;;;;;5071506;28;20033;-73
2021/03/31 07:59:06;;;;;;;13.48;7.75;;;9.80;99.90;;;;;;5070338;28;20031;-73
2021/03/31 08:01:47;;;;;;;13.63;7.22;;;10.00;99.90;;;;;;5071750;28;20414;-71
2021/03/31 08:04:15;;;;;;;17.30;7.32;;;10.30;99.90;;;;;;5071342;28;20077;-71
2021/03/31 08:06:42;;;;;;;16.85;7.25;;;10.60;99.90;;;;;;5071455;28;20031;-71
2021/03/31 08:09:21;;;;;;;11.35;6.60;;;11.10;99.90;;;;;;5062300;28;20036;-73
2021/03/31 08:11:58;;;;;;;9.10;5.80;;;11.60;99.90;;;;;;5058464;28;20036;-71
2021/03/31 08:14:27;;;;;;;13.32;6.80;;;12.20;99.90;;;;;;5053085;28;20194;-71
2021/03/31 08:16:58;;;;;;;13.18;6.78;;;13.10;99.90;;;;;;5052993;28;20029;-72
2021/03/31 08:19:31;;;;;;;10.83;6.37;;;13.00;99.90;;;;;;5053177;28;20664;-72
2021/03/31 08:21:57;;;;;;;15.57;7.22;;;12.90;99.90;;;;;;5053047;28;20686;-72
2021/03/31 08:24:41;;;;;;;13.18;6.60;;;13.60;99.90;;;;;;5052217;28;20479;-71
2021/03/31 08:27:07;;;;;;;14.13;6.25;;;14.10;99.90;;;;;;5052914;28;20491;-73
2021/03/31 08:29:33;;;;;;;13.38;6.63;;;14.30;99.90;;;;;;5050699;28;20017;-72
2021/03/31 08:32:02;;;;;;;17.42;7.22;;;14.30;99.90;;;;;;5060538;28;20024;-71
2021/03/31 08:34:31;;;;;;;11.57;6.25;;;14.70;99.90;;;;;;5051919;28;20043;-71
2021/03/31 08:36:58;;;;;;;10.68;5.82;;;15.70;99.90;;;;;;5049751;28;20035;-71
2021/03/31 08:39:24;;;;;;;8.20;6.32;;;16.30;99.40;;;;;;5050960;28;20029;-71
2021/03/31 08:41:55;;;;;;;14.45;7.22;;;16.40;98.90;;;;;;5052383;28;20470;-71
2021/03/31 08:44:39;;;;;;;13.65;7.43;;;16.60;98.10;;;;;;5051676;28;20056;-71
2021/03/31 08:47:13;;;;;;;13.85;7.13;;;17.40;97.30;;;;;;5051263;28;20390;-71
2021/03/31 08:49:41;;;;;;;10.65;6.85;;;18.10;94.20;;;;;;5050767;28;20108;-71
2021/03/31 08:52:09;;;;;;;9.75;7.25;;;18.80;93.20;;;;;;5048521;28;20180;-71
2021/03/31 08:54:36;;;;;;;13.18;7.47;;;19.40;89.60;;;;;;5050435;28;20483;-71
2021/03/31 08:57:07;;;;;;;14.95;7.35;;;19.30;90.60;;;;;;5050787;28;20040;-71
2021/03/31 08:59:36;;;;;;;14.55;7.65;;;19.40;88.70;;;;;;5049898;28;20067;-72
2021/03/31 09:02:02;;;;;;;10.07;6.70;;;19.20;88.30;;;;;;5051739;28;20025;-72
2021/03/31 09:04:28;;;;;;;12.27;7.25;;;19.60;86.70;;;;;;5050719;28;20127;-70
2021/03/31 09:06:55;;;;;;;13.88;7.28;;;19.90;83.80;;;;;;5051841;28;20100;-71
2021/03/31 09:09:22;;;;;;;16.48;7.47;;;20.90;84.50;;;;;;5051301;28;20033;-71
2021/03/31 09:11:48;;;;;;;16.98;7.78;;;22.30;77.30;;;;;;5052238;28;20059;-71
2021/03/31 09:14:22;;;;;;;19.10;7.88;;;22.60;72.60;;;;;;5045171;28;20017;-70
2021/03/31 09:16:57;;;;;;;13.70;7.50;;;23.40;69.10;;;;;;5049851;28;20028;-73
2021/03/31 09:19:25;;;;;;;14.27;7.40;;;22.80;67.60;;;;;;5050152;28;20052;-72
2021/03/31 09:21:51;;;;;;;12.80;6.68;;;21.70;70.00;;;;;;5064861;28;20028;-70
2021/03/31 09:24:20;;;;;;;11.70;7.68;;;21.30;71.50;;;;;;5066574;28;20048;-70
2021/03/31 09:27:06;;;;;;;12.90;7.50;;;20.90;72.30;;;;;;5051534;28;20025;-71
2021/03/31 09:29:32;;;;;;;11.32;7.97;;;22.40;66.50;;;;;;5051618;28;20667;-71
2021/03/31 09:31:59;;;;;;;18.23;7.70;;;23.20;65.00;;;;;;5050838;28;20049;-72
2021/03/31 09:34:25;;;;;;;14.98;8.00;;;21.80;64.70;;;;;;5068139;28;20451;-71
2021/03/31 09:37:05;;;;;;;14.00;7.72;;;22.20;65.20;;;;;;5071700;28;20016;-73
2021/03/31 09:39:58;;;;;;;11.02;7.50;;;22.60;63.90;;;;;;5055540;28;20495;-72
2021/03/31 09:42:31;;;;;;;13.73;7.78;;;23.00;62.10;;;;;;5047475;28;20037;-74
2021/03/31 09:44:58;;;;;;;10.10;6.90;;;22.80;64.10;;;;;;5049091;28;20398;-72
2021/03/31 09:47:25;;;;;;;11.30;7.38;;;22.80;62.60;;;;;;5049775;28;20029;-72
2021/03/31 09:49:53;;;;;;;9.98;6.57;;;22.40;63.20;;;;;;5049647;28;20394;-72
2021/03/31 09:52:30;;;;;;;7.90;6.57;;;23.40;63.40;;;;;;5049303;28;20459;-72
2021/03/31 09:55:09;;;;;;;8.82;7.15;;;23.80;59.70;;;;;;5048248;28;20087;-73
2021/03/31 09:57:37;;;;;;;9.05;6.47;;;24.60;59.00;;;;;;5048045;28;20029;-72
2021/03/31 10:00:05;;;;;;;12.98;7.07;;;25.00;57.90;;;;;;5049268;28;20025;-72
2021/03/31 10:02:32;;;;;;;10.25;7.57;;;25.90;55.20;;;;;;5047520;28;20025;-73
2021/03/31 10:05:06;;;;;;;12.35;7.07;;;26.60;55.50;;;;;;5046485;28;20104;-70
2021/03/31 10:07:32;;;;;;;11.50;7.32;;;27.10;53.20;;;;;;5048873;28;20068;-71
2021/03/31 10:09:57;;;;;;;13.40;6.93;;;29.10;52.50;;;;;;5055912;28;20033;-71
2021/03/31 10:12:28;;;;;;;11.07;6.82;;;29.50;49.00;;;;;;5068999;28;20052;-70
2021/03/31 10:14:56;;;;;;;16.05;7.90;;;29.60;49.90;;;;;;5068247;28;20025;-71
2021/03/31 10:17:24;;;;;;;10.15;7.13;;;29.80;47.40;;;;;;5055537;28;20025;-70
2021/03/31 10:19:50;;;;;;;11.25;6.88;;;29.50;47.70;;;;;;5048757;28;20100;-71
2021/03/31 10:22:18;;;;;;;14.98;7.28;;;30.10;45.80;;;;;;5049135;28;20045;-70
2021/03/31 10:24:46;;;;;;;10.38;6.60;;;30.20;45.50;;;;;;5047698;28;20025;-69
2021/03/31 10:27:14;;;;;;;8.48;6.85;;;29.50;44.80;;;;;;5048441;28;20021;-70
2021/03/31 10:29:51;;;;;;;10.98;6.35;;;29.80;47.50;;;;;;5048873;28;20021;-70
2021/03/31 10:32:20;;;;;;;14.98;6.85;;;30.20;44.70;;;;;;5048917;28;20060;-68
2021/03/31 10:34:53;;;;;;;11.82;6.53;;;30.90;43.60;;;;;;5046429;28;20025;-68
2021/03/31 10:48:39;;;;;;;8.15;5.78;;;32.10;41.20;;;;;;5048316;28;20029;-68
2021/03/31 10:53:56;;;;;;;9.13;6.20;;;30.10;41.60;;;;;;5048125;28;20087;-70
2021/03/31 10:56:22;;;;;;;8.20;6.15;;;31.60;41.50;;;;;;5048539;28;20032;-70
2021/03/31 10:58:49;;;;;;;11.48;6.32;;;31.90;39.30;;;;;;5048570;28;20025;-70
2021/03/31 11:01:15;;;;;;;11.95;6.07;;;32.90;39.60;;;;;;5049028;28;20026;-69
2021/03/31 11:03:40;;;;;;;9.38;5.55;;;33.10;36.50;;;;;;5047915;28;20463;-70
2021/03/31 11:06:07;;;;;;;18.92;6.00;;;33.30;37.40;;;;;;5048320;28;20035;-70
2021/03/31 11:08:32;;;;;;;5.70;4.10;;;33.00;38.20;;;;;;5049188;28;20108;-68
2021/03/31 11:10:58;;;;;;;8.60;4.65;;;33.80;35.00;;;;;;5066435;28;20104;-70
2021/03/31 11:13:24;;;;;;;6.45;4.18;;;33.20;31.20;;;;;;5067879;28;20698;-69
2021/03/31 11:15:52;;;;;;;5.60;3.75;;;31.80;32.60;;;;;;5068736;28;20025;-69
2021/03/31 11:26:03;;;;;;;5.88;4.63;;;33.00;31.50;;;;;;5051933;28;20075;-69
2021/03/31 11:28:29;;;;;;;4.78;4.30;;;34.90;29.40;;;;;;5051397;28;20028;-69
2021/03/31 11:30:54;;;;;;;8.90;5.00;;;33.10;30.50;;;;;;5051165;28;20025;-69
2021/03/31 11:33:22;;;;;;;7.82;4.05;;;31.10;32.30;;;;;;5050153;28;20541;-69
2021/03/31 11:35:49;;;;;;;6.03;4.07;;;30.60;32.80;;;;;;5052172;28;20024;-69
2021/03/31 11:38:14;;;;;;;6.30;4.75;;;30.40;33.70;;;;;;5051450;28;20025;-69
2021/03/31 11:40:41;;;;;;;6.70;3.92;;;31.30;34.00;;;;;;5051767;28;20165;-70
2021/03/31 11:43:07;;;;;;;7.93;3.97;;;33.00;32.40;;;;;;5050962;28;20030;-68
2021/03/31 11:45:33;;;;;;;9.55;4.18;;;33.90;30.20;;;;;;5051456;28;20032;-69
2021/03/31 11:47:59;;;;;;;7.97;4.15;;;33.20;30.80;;;;;;5050269;28;20069;-68
2021/03/31 11:50:25;;;;;;;8.68;4.68;;;33.50;30.70;;;;;;5050632;28;20069;-69
2021/03/31 11:52:55;;;;;;;7.63;3.92;;;32.90;30.90;;;;;;5051070;28;20117;-69
2021/03/31 11:55:22;;;;;;;4.57;4.18;;;32.80;33.50;;;;;;5051654;28;20036;-68
2021/03/31 11:57:48;;;;;;;4.78;4.13;;;30.50;33.40;;;;;;5052172;28;20021;-69
2021/03/31 12:00:15;;;;;;;4.78;3.63;;;31.00;32.80;;;;;;5050299;28;20383;-68
2021/03/31 12:02:40;;;;;;;5.07;4.10;;;31.80;32.10;;;;;;5046610;28;20049;-69
2021/03/31 12:05:06;;;;;;;6.82;4.00;;;31.60;29.60;;;;;;5050672;28;20447;-68
2021/03/31 12:07:32;;;;;;;7.10;4.00;;;31.10;30.20;;;;;;5050965;28;20098;-68
2021/03/31 12:09:58;;;;;;;5.38;3.80;;;30.90;29.80;;;;;;5058312;28;20028;-68
2021/03/31 12:12:24;;;;;;;4.75;3.88;;;31.10;30.00;;;;;;5049622;28;20025;-68
2021/03/31 12:14:49;;;;;;;5.43;3.70;;;30.80;30.10;;;;;;5030590;28;20029;-68
2021/03/31 12:17:16;;;;;;;7.40;3.80;;;29.50;31.00;;;;;;5030873;28;20029;-69
2021/03/31 12:19:42;;;;;;;7.68;3.92;;;29.80;30.70;;;;;;5042508;28;20017;-69
2021/03/31 12:22:08;;;;;;;5.15;3.80;;;29.50;30.40;;;;;;5051546;28;20029;-69
2021/03/31 12:24:34;;;;;;;3.90;3.50;;;29.80;31.10;;;;;;5054293;28;20029;-70
2021/03/31 12:27:04;;;;;;;7.05;3.13;;;31.00;31.00;;;;;;5062440;28;20047;-70
2021/03/31 12:29:31;;;;;;;5.93;3.30;;;31.30;29.70;;;;;;5048886;28;20029;-68
2021/03/31 12:31:56;;;;;;;4.18;3.55;;;31.00;29.70;;;;;;5050344;28;20162;-68
2021/03/31 12:34:22;;;;;;;5.78;3.08;;;31.30;29.70;;;;;;5049692;28;20028;-68
2021/03/31 12:36:48;;;;;;;6.45;3.35;;;31.10;29.60;;;;;;5054741;28;20626;-69
2021/03/31 12:39:14;;;;;;;5.05;3.20;;;31.20;29.30;;;;;;5070387;28;20040;-69
2021/03/31 12:41:39;;;;;;;6.43;3.22;;;31.30;29.40;;;;;;5071057;28;20108;-69
2021/03/31 12:44:06;;;;;;;6.32;2.65;;;31.00;29.80;;;;;;5068185;28;20024;-69
2021/03/31 12:46:32;;;;;;;4.25;2.45;;;31.20;31.10;;;;;;5070641;28;20016;-69
2021/03/31 12:48:57;;;;;;;6.38;2.70;;;30.70;29.40;;;;;;5062645;28;20035;-70
2021/03/31 12:51:33;;;;;;;5.25;3.20;;;31.10;30.10;;;;;;5048883;28;20082;-70
2021/03/31 12:56:43;;;;;;;5.22;2.90;;;30.70;29.40;;;;;;5049385;28;20124;-69
2021/03/31 12:59:09;;;;;;;9.15;3.17;;;30.80;29.00;;;;;;5049271;28;20010;-69
2021/03/31 13:01:36;;;;;;;5.63;3.22;;;31.10;29.70;;;;;;5050991;28;20020;-69
2021/03/31 13:04:03;;;;;;;6.43;3.58;;;31.30;28.90;;;;;;5050414;28;20446;-69
2021/03/31 13:06:32;;;;;;;6.80;3.85;;;30.20;29.70;;;;;;5051176;28;20021;-71
2021/03/31 13:08:59;;;;;;;6.40;3.15;;;30.60;29.40;;;;;;5050956;28;20032;-68
2021/03/31 13:11:26;;;;;;;5.30;3.78;;;30.80;30.20;;;;;;5048670;28;20021;-68
2021/03/31 13:24:27;;;;;;;5.97;3.55;;;31.10;29.30;;;;;;5029596;28;20032;-70
2021/03/31 13:34:55;;;;;;;5.28;3.83;;;30.30;31.30;;;;;;5050112;28;20036;-70
2021/03/31 13:37:27;;;;;;;8.23;3.63;;;30.70;32.20;;;;;;5049553;28;20029;-70